createdAt,value
2019-05-12T00:02:03.431Z,98543.00
2019-05-12T00:04:35.412Z,98545.08
2019-05-12T00:07:08.765Z,98552.14
2019-05-12T00:09:40.865Z,98557.98
2019-05-12T00:12:12.910Z,98554.20
2019-05-12T00:14:44.850Z,98562.11
2019-05-12T00:17:18.797Z,98562.07
2019-05-12T00:19:50.810Z,98564.98
2019-05-12T00:22:24.766Z,98560.94
2019-05-12T00:24:58.382Z,98565.17
2019-05-12T00:27:30.460Z,98572.04
2019-05-12T00:30:02.998Z,98574.41
2019-05-12T00:32:34.970Z,98570.98
2019-05-12T00:35:07.887Z,98575.69
2019-05-12T00:37:40.022Z,98571.41
2019-05-12T00:40:11.990Z,98573.23
2019-05-12T00:42:43.984Z,98575.28
2019-05-12T00:45:18.010Z,98577.30
2019-05-12T00:47:49.902Z,98579.86
2019-05-12T00:50:21.855Z,98586.48
2019-05-12T00:52:53.846Z,98580.00
2019-05-12T00:55:25.833Z,98588.27
2019-05-12T00:57:58.368Z,98597.44
2019-05-12T01:00:30.487Z,98597.45
2019-05-12T01:03:02.478Z,98604.84
2019-05-12T01:05:34.456Z,98603.80
2019-05-12T01:08:09.240Z,98610.95
2019-05-12T01:10:40.373Z,98617.11
2019-05-12T01:13:12.373Z,98614.56
2019-05-12T01:15:44.369Z,98620.59
2019-05-12T01:18:18.102Z,98624.75
2019-05-12T01:20:50.249Z,98625.69
2019-05-12T01:23:23.525Z,98633.56
2019-05-12T01:25:58.300Z,98634.31
2019-05-12T01:28:29.604Z,98640.44
2019-05-12T01:31:03.503Z,98634.66
2019-05-12T01:33:35.466Z,98639.14
2019-05-12T01:36:07.931Z,98645.50
2019-05-12T01:38:40.035Z,98643.34
2019-05-12T01:41:12.051Z,98647.52
2019-05-12T01:43:43.997Z,98644.09
2019-05-12T01:46:18.080Z,98658.63
2019-05-12T01:48:49.850Z,98658.87
2019-05-12T01:51:21.863Z,98664.23
2019-05-12T01:54:06.947Z,98660.66
2019-05-12T01:56:28.758Z,98665.63
2019-05-12T01:59:00.937Z,98675.43
2019-05-12T02:01:32.943Z,98672.12
2019-05-12T02:04:04.901Z,98674.95
2019-05-12T02:06:38.703Z,98688.91
2019-05-12T02:09:13.506Z,98688.72
2019-05-12T02:11:45.485Z,98692.55
2019-05-12T02:14:18.296Z,98698.53
2019-05-12T02:16:50.451Z,98706.21
2019-05-12T02:19:22.429Z,98701.47
2019-05-12T02:21:54.433Z,98713.55
2019-05-12T02:24:29.746Z,98712.77
2019-05-12T02:27:00.283Z,98716.83
2019-05-12T02:29:32.264Z,98726.28
2019-05-12T02:32:04.265Z,98723.34
2019-05-12T02:34:36.198Z,98732.75
2019-05-12T02:37:08.201Z,98736.95
2019-05-12T02:39:40.250Z,98743.17
2019-05-12T02:42:15.382Z,98746.75
2019-05-12T02:44:46.097Z,98747.28
2019-05-12T02:47:18.115Z,98749.30
2019-05-12T02:49:50.084Z,98752.53
2019-05-12T02:52:24.960Z,98758.75
2019-05-12T02:55:00.527Z,98760.52
2019-05-12T02:57:30.203Z,98753.64
2019-05-12T03:00:05.070Z,98761.92
2019-05-12T03:02:37.239Z,98760.75
2019-05-12T03:05:09.295Z,98771.72
2019-05-12T03:07:44.740Z,98785.09
2019-05-12T03:10:16.424Z,98790.92
2019-05-12T03:12:48.431Z,98796.16
2019-05-12T03:15:20.396Z,98799.30
2019-05-12T03:17:54.599Z,98800.47
2019-05-12T03:20:26.259Z,98804.92
2019-05-12T03:22:58.300Z,98812.94
2019-05-12T03:25:30.380Z,98805.30
2019-05-12T03:28:04.912Z,98817.79
2019-05-12T03:30:39.975Z,98826.45
2019-05-12T03:33:13.840Z,98820.09
2019-05-12T03:35:52.260Z,98831.02
2019-05-12T03:38:19.334Z,98827.84
2019-05-12T03:40:51.302Z,98825.53
2019-05-12T03:43:24.386Z,98835.97
2019-05-12T03:45:56.547Z,98836.36
2019-05-12T03:48:28.525Z,98842.37
2019-05-12T03:51:00.497Z,98848.22
2019-05-12T03:53:35.295Z,98852.43
2019-05-12T03:56:06.417Z,98852.42
2019-05-12T03:58:38.362Z,98859.78
2019-05-12T04:01:10.343Z,98858.66
2019-05-12T04:03:45.047Z,98859.53
2019-05-12T04:06:16.188Z,98862.72
2019-05-12T04:08:48.179Z,98867.42
2019-05-12T04:11:20.160Z,98861.84
2019-05-12T04:13:54.826Z,98861.34
2019-05-12T04:16:25.992Z,98868.45
2019-05-12T04:18:57.957Z,98865.02
2019-05-12T04:21:29.942Z,98868.20
2019-05-12T04:24:05.056Z,98874.43
2019-05-12T04:26:36.687Z,98877.12
2019-05-12T04:29:09.017Z,98872.77
2019-05-12T04:31:44.088Z,98880.16
2019-05-12T04:34:18.955Z,98882.71
2019-05-12T04:36:49.057Z,98883.73
2019-05-12T04:39:21.000Z,98889.08
2019-05-12T04:41:55.171Z,98895.34
2019-05-12T04:44:26.826Z,98887.06
2019-05-12T04:46:58.845Z,98899.56
2019-05-12T04:49:30.817Z,98904.87
2019-05-12T04:52:05.253Z,98910.75
2019-05-12T04:54:36.722Z,98914.70
2019-05-12T04:57:08.677Z,98916.87
2019-05-12T04:59:40.614Z,98930.00
2019-05-12T05:02:15.295Z,98937.50
2019-05-12T05:04:46.514Z,98943.87
2019-05-12T05:07:18.475Z,98944.79
2019-05-12T05:09:50.449Z,98955.34
2019-05-12T05:12:23.960Z,98954.31
2019-05-12T05:14:56.120Z,98961.71
2019-05-12T05:17:28.109Z,98971.52
2019-05-12T05:20:00.052Z,98972.41
2019-05-12T05:22:33.314Z,98978.53
2019-05-12T05:25:05.523Z,98978.00
2019-05-12T05:27:37.573Z,98983.59
2019-05-12T05:30:09.529Z,98989.68
2019-05-12T05:32:41.524Z,98988.50
2019-05-12T05:35:13.837Z,98987.22
2019-05-12T05:37:45.948Z,98989.36
2019-05-12T05:40:19.821Z,98993.66
2019-05-12T05:42:54.148Z,98995.32
2019-05-12T05:45:26.508Z,98993.20
2019-05-12T05:47:59.589Z,99003.34
2019-05-12T05:50:34.302Z,99005.25
2019-05-12T05:53:09.182Z,99009.44
2019-05-12T05:55:40.362Z,99011.70
2019-05-12T05:58:12.330Z,99010.42
2019-05-12T06:00:44.304Z,99008.28
2019-05-12T06:03:23.123Z,99006.91
2019-05-12T06:05:50.149Z,99019.36
2019-05-12T06:08:23.775Z,99020.84
2019-05-12T06:10:56.003Z,99020.00
2019-05-12T06:13:31.845Z,99023.04
2019-05-12T06:16:04.226Z,99021.34
2019-05-12T06:18:35.728Z,99030.86
2019-05-12T06:21:07.769Z,99028.98
2019-05-12T06:23:39.740Z,99033.50
2019-05-12T06:26:14.069Z,99031.98
2019-05-12T06:28:45.621Z,99037.80
2019-05-12T06:31:19.001Z,99041.72
2019-05-12T06:33:53.575Z,99042.38
2019-05-12T06:36:27.346Z,99047.69
2019-05-12T06:38:59.261Z,99043.69
2019-05-12T06:41:33.581Z,99054.33
2019-05-12T06:44:08.705Z,99062.67
2019-05-12T06:46:39.024Z,99069.50
2019-05-12T06:49:13.611Z,99073.56
2019-05-12T06:51:44.892Z,99072.41
2019-05-12T06:54:16.879Z,99072.85
2019-05-12T06:56:50.113Z,99075.59
2019-05-12T06:59:23.750Z,99079.01
2019-05-12T07:02:00.326Z,99078.95
2019-05-12T07:04:29.957Z,99083.31
2019-05-12T07:07:03.669Z,99076.50
2019-05-12T07:09:50.082Z,99076.50
2019-05-12T07:12:09.621Z,99090.92
2019-05-12T07:14:43.780Z,99091.43
2019-05-12T07:17:25.403Z,99098.25
2019-05-12T07:19:58.415Z,99111.76
2019-05-12T07:22:31.209Z,99110.16
2019-05-12T07:25:05.496Z,99102.86
2019-05-12T07:27:39.766Z,99108.54
2019-05-12T07:30:13.704Z,99106.00
2019-05-12T07:32:45.892Z,99103.01
2019-05-12T07:35:17.920Z,99099.79
2019-05-12T07:37:50.013Z,99098.53
2019-05-12T07:40:25.771Z,99094.34
2019-05-12T07:42:56.588Z,99099.48
2019-05-12T07:45:28.582Z,99105.98
2019-05-12T07:48:07.743Z,99113.18
2019-05-12T07:50:34.828Z,99115.69
2019-05-12T07:53:06.841Z,99120.22
2019-05-12T07:55:39.766Z,99120.38
2019-05-12T07:58:15.565Z,99121.46
2019-05-12T08:00:46.599Z,99125.55
2019-05-12T08:03:21.215Z,99118.19
2019-05-12T08:05:57.434Z,99125.79
2019-05-12T08:08:26.418Z,99124.06
2019-05-12T08:10:58.439Z,99131.62
2019-05-12T08:13:31.327Z,99131.01
2019-05-12T08:16:04.333Z,99127.50
2019-05-12T08:18:40.997Z,99134.16
2019-05-12T08:21:10.210Z,99132.22
2019-05-12T08:23:44.500Z,99125.64
2019-05-12T08:26:18.610Z,99120.66
2019-05-12T08:28:49.978Z,99120.63
2019-05-12T08:31:25.867Z,99127.98
2019-05-12T08:33:55.872Z,99132.36
2019-05-12T08:36:27.868Z,99138.06
2019-05-12T08:39:03.022Z,99140.68
2019-05-12T08:41:34.242Z,99144.44
2019-05-12T08:44:06.345Z,99140.30
2019-05-12T08:46:43.226Z,99142.41
2019-05-12T08:49:14.308Z,99149.55
2019-05-12T08:51:49.734Z,99156.69
2019-05-12T08:54:20.088Z,99152.68
2019-05-12T08:56:59.318Z,99152.48
2019-05-12T08:59:27.407Z,99166.82
2019-05-12T09:02:00.461Z,99168.00
2019-05-12T09:04:33.936Z,99175.66
2019-05-12T09:07:05.959Z,99177.91
2019-05-12T09:09:37.983Z,99182.88
2019-05-12T09:12:09.984Z,99182.69
2019-05-12T09:14:46.265Z,99190.82
2019-05-12T09:17:15.968Z,99179.22
2019-05-12T09:19:47.978Z,99178.88
2019-05-12T09:22:21.000Z,99176.61
2019-05-12T09:24:53.476Z,99188.97
2019-05-12T09:27:25.452Z,99197.03
2019-05-12T09:29:59.056Z,99193.87
2019-05-12T09:32:33.374Z,99200.86
2019-05-12T09:35:05.459Z,99193.27
2019-05-12T09:37:40.363Z,99211.06
2019-05-12T09:40:11.347Z,99206.30
2019-05-12T09:42:44.095Z,99214.20
2019-05-12T09:45:16.408Z,99222.63
2019-05-12T09:47:48.432Z,99224.02
2019-05-12T09:50:20.663Z,99224.91
2019-05-12T09:52:55.424Z,99228.67
2019-05-12T09:55:26.612Z,99221.84
2019-05-12T09:57:58.597Z,99218.38
2019-05-12T10:00:35.902Z,99214.01
2019-05-12T10:03:08.254Z,99221.67
2019-05-12T10:05:41.105Z,99227.20
2019-05-12T10:08:13.908Z,99226.09
2019-05-12T10:10:47.038Z,99232.45
2019-05-12T10:13:20.216Z,99236.69
2019-05-12T10:15:53.581Z,99234.95
2019-05-12T10:18:25.754Z,99231.11
2019-05-12T10:20:57.707Z,99229.70
2019-05-12T10:23:29.692Z,99223.52
2019-05-12T10:26:09.488Z,99241.84
2019-05-12T10:28:35.613Z,99238.49
2019-05-12T10:31:07.610Z,99239.56
2019-05-12T10:33:39.620Z,99247.37
2019-05-12T10:36:11.591Z,99232.45
2019-05-12T10:38:43.573Z,99230.84
2019-05-12T10:41:15.573Z,99226.31
2019-05-12T10:43:48.353Z,99222.13
2019-05-12T10:46:26.938Z,99229.91
2019-05-12T10:48:55.352Z,99230.06
2019-05-12T10:51:27.353Z,99238.01
2019-05-12T10:54:09.209Z,99241.50
2019-05-12T10:56:34.780Z,99239.87
2019-05-12T10:59:06.976Z,99241.90
2019-05-12T11:01:45.660Z,99246.48
2019-05-12T11:04:14.325Z,99246.17
2019-05-12T11:06:48.462Z,99252.71
2019-05-12T11:09:21.373Z,99257.53
2019-05-12T11:11:54.263Z,99263.25
2019-05-12T11:14:30.284Z,99254.20
2019-05-12T11:17:07.386Z,99255.38
2019-05-12T11:19:40.606Z,99243.56
2019-05-12T11:22:09.822Z,99232.80
2019-05-12T11:24:44.228Z,99236.73
2019-05-12T11:27:15.831Z,99231.37
2019-05-12T11:29:49.558Z,99236.22
2019-05-12T11:32:23.237Z,99249.35
2019-05-12T11:34:55.452Z,99252.59
2019-05-12T11:37:29.115Z,99242.98
2019-05-12T11:40:01.223Z,99246.88
2019-05-12T11:42:33.679Z,99249.05
2019-05-12T11:45:05.861Z,99249.70
2019-05-12T11:47:37.945Z,99244.58
2019-05-12T11:50:10.281Z,99252.44
2019-05-12T11:52:46.073Z,99249.27
2019-05-12T11:55:16.226Z,99250.00
2019-05-12T11:57:48.182Z,99258.62
2019-05-12T12:00:24.139Z,99268.27
2019-05-12T12:02:56.255Z,99266.50
2019-05-12T12:05:28.246Z,99263.92
2019-05-12T12:08:00.280Z,99267.72
2019-05-12T12:10:35.513Z,99265.23
2019-05-12T12:13:06.181Z,99263.88
2019-05-12T12:15:38.181Z,99265.42
2019-05-12T12:18:15.186Z,99268.00
2019-05-12T12:20:44.421Z,99267.05
2019-05-12T12:23:16.420Z,99270.33
2019-05-12T12:25:50.099Z,99261.19
2019-05-12T12:28:24.167Z,99270.69
2019-05-12T12:31:00.290Z,99272.27
2019-05-12T12:33:30.926Z,99276.14
2019-05-12T12:36:04.247Z,99295.91
2019-05-12T12:38:36.306Z,99296.53
2019-05-12T12:41:08.345Z,99302.69
2019-05-12T12:43:40.358Z,99302.02
2019-05-12T12:46:25.361Z,99309.45
2019-05-12T12:49:00.227Z,99292.43
2019-05-12T12:51:31.310Z,99288.77
2019-05-12T12:54:03.464Z,99285.79
2019-05-12T12:56:35.431Z,99288.66
2019-05-12T12:59:11.996Z,99287.47
2019-05-12T13:01:41.357Z,99284.13
2019-05-12T13:04:13.410Z,99283.18
2019-05-12T13:06:45.376Z,99291.42
2019-05-12T13:09:24.219Z,99290.72
2019-05-12T13:11:53.579Z,99296.58
2019-05-12T13:14:28.471Z,99298.05
2019-05-12T13:16:59.257Z,99292.09
2019-05-12T13:19:33.139Z,99290.67
2019-05-12T13:22:09.128Z,99281.70
2019-05-12T13:24:39.002Z,99289.95
2019-05-12T13:27:11.028Z,99282.68
2019-05-12T13:29:43.056Z,99293.41
2019-05-12T13:32:15.116Z,99298.74
2019-05-12T13:34:47.119Z,99299.70
2019-05-12T13:37:19.540Z,99299.72
2019-05-12T13:39:58.531Z,99316.53
2019-05-12T13:42:25.530Z,99316.45
2019-05-12T13:44:57.525Z,99317.56
2019-05-12T13:47:35.496Z,99327.86
2019-05-12T13:50:04.164Z,99316.63
2019-05-12T13:52:36.243Z,99318.72
2019-05-12T13:55:08.269Z,99313.17
2019-05-12T13:57:46.724Z,99307.87
2019-05-12T14:00:14.452Z,99301.42
2019-05-12T14:02:48.921Z,99300.25
2019-05-12T14:05:20.342Z,99304.78
2019-05-12T14:07:55.675Z,99308.55
2019-05-12T14:10:26.276Z,99304.91
2019-05-12T14:12:58.304Z,99314.52
2019-05-12T14:15:30.325Z,99309.31
2019-05-12T14:18:03.427Z,99311.44
2019-05-12T14:20:35.592Z,99309.44
2019-05-12T14:23:07.630Z,99311.09
2019-05-12T14:25:39.592Z,99305.11
2019-05-12T14:28:15.791Z,99307.55
2019-05-12T14:30:49.709Z,99300.01
2019-05-12T14:33:19.477Z,99308.67
2019-05-12T14:35:53.768Z,99307.81
2019-05-12T14:38:29.599Z,99299.69
2019-05-12T14:41:01.487Z,99299.98
2019-05-12T14:43:34.105Z,99308.73
2019-05-12T14:46:10.379Z,99323.59
2019-05-12T14:48:45.329Z,99319.86
2019-05-12T14:51:14.265Z,99321.75
2019-05-12T14:53:48.091Z,99316.00
2019-05-12T14:56:20.123Z,99317.89
2019-05-12T14:58:58.007Z,99312.33
2019-05-12T15:01:38.440Z,99317.78
2019-05-12T15:03:59.951Z,99314.70
2019-05-12T15:06:33.989Z,99313.80
2019-05-12T15:09:11.510Z,99326.00
2019-05-12T15:11:40.620Z,99325.88
2019-05-12T15:14:13.743Z,99331.82
2019-05-12T15:16:45.870Z,99320.72
2019-05-12T15:19:20.780Z,99325.77
2019-05-12T15:21:53.720Z,99330.82
2019-05-12T15:24:25.780Z,99321.21
2019-05-12T15:27:00.672Z,99324.29
2019-05-12T15:29:33.736Z,99326.86
2019-05-12T15:32:05.808Z,99332.23
2019-05-12T15:34:37.776Z,99334.30
2019-05-12T15:37:09.787Z,99344.89
2019-05-12T15:39:43.916Z,99336.39
2019-05-12T15:42:15.725Z,99339.55
2019-05-12T15:44:47.721Z,99344.41
2019-05-12T15:47:19.786Z,99343.89
2019-05-12T15:49:53.169Z,99341.91
2019-05-12T15:52:29.861Z,99342.89
2019-05-12T15:54:59.231Z,99346.98
2019-05-12T15:57:33.362Z,99347.75
2019-05-12T16:00:05.250Z,99343.02
2019-05-12T16:02:37.285Z,99352.90
2019-05-12T16:05:09.445Z,99350.34
2019-05-12T16:07:43.631Z,99349.16
2019-05-12T16:10:15.383Z,99364.18
2019-05-12T16:12:47.404Z,99361.11
2019-05-12T16:15:19.531Z,99355.95
2019-05-12T16:17:53.864Z,99365.45
2019-05-12T16:20:25.501Z,99368.45
2019-05-12T16:22:57.722Z,99366.77
2019-05-12T16:25:31.035Z,99372.22
2019-05-12T16:28:07.710Z,99370.25
2019-05-12T16:30:37.283Z,99369.34
2019-05-12T16:33:14.386Z,99358.17
2019-05-12T16:35:44.123Z,99368.27
2019-05-12T16:38:19.941Z,99357.85
2019-05-12T16:40:50.334Z,99367.67
2019-05-12T16:43:23.808Z,99371.42
2019-05-12T16:45:55.937Z,99363.31
2019-05-12T16:48:32.770Z,99370.13
2019-05-12T16:51:03.321Z,99373.10
2019-05-12T16:53:35.552Z,99373.02
2019-05-12T16:56:07.599Z,99381.02
2019-05-12T16:58:39.632Z,99383.00
2019-05-12T17:01:14.225Z,99380.52
2019-05-12T17:03:45.542Z,99377.27
2019-05-12T17:06:20.412Z,99388.94
2019-05-12T17:08:51.519Z,99390.63
2019-05-12T17:11:30.017Z,99394.48
2019-05-12T17:14:04.025Z,99392.11
2019-05-12T17:16:33.697Z,99395.29
2019-05-12T17:19:10.248Z,99396.91
2019-05-12T17:21:39.265Z,99396.86
2019-05-12T17:24:11.289Z,99399.44
2019-05-12T17:26:44.007Z,99400.15
2019-05-12T17:29:16.170Z,99394.52
2019-05-12T17:31:48.172Z,99404.06
2019-05-12T17:34:23.442Z,99401.05
2019-05-12T17:36:56.128Z,99400.37
2019-05-12T17:39:29.528Z,99409.05
2019-05-12T17:42:02.181Z,99410.94
2019-05-12T17:44:36.664Z,99416.28
2019-05-12T17:47:14.053Z,99414.87
2019-05-12T17:49:43.574Z,99422.80
2019-05-12T17:52:18.633Z,99418.05
2019-05-12T17:54:49.878Z,99427.86
2019-05-12T17:57:23.506Z,99429.15
2019-05-12T17:59:59.722Z,99430.43
2019-05-12T18:02:29.689Z,99440.88
2019-05-12T18:05:10.138Z,99445.67
2019-05-12T18:07:35.729Z,99440.17
2019-05-12T18:10:07.861Z,99447.49
2019-05-12T18:12:44.825Z,99448.50
2019-05-12T18:15:15.184Z,99451.42
2019-05-12T18:17:49.877Z,99461.83
2019-05-12T18:20:23.632Z,99463.30
2019-05-12T18:22:55.346Z,99466.15
2019-05-12T18:25:30.476Z,99463.62
2019-05-12T18:28:03.592Z,99472.31
2019-05-12T18:30:35.478Z,99475.19
2019-05-12T18:33:09.489Z,99472.28
2019-05-12T18:35:43.787Z,99476.24
2019-05-12T18:38:21.592Z,99482.31
2019-05-12T18:40:49.459Z,99486.44
2019-05-12T18:43:21.454Z,99492.56
2019-05-12T18:45:57.248Z,99494.27
2019-05-12T18:48:27.498Z,99494.34
2019-05-12T18:51:04.997Z,99491.37
2019-05-12T18:53:34.959Z,99491.42
2019-05-12T18:56:10.406Z,99495.70
2019-05-12T18:58:41.061Z,99498.48
2019-05-12T19:01:14.101Z,99498.79
2019-05-12T19:03:50.758Z,99500.90
2019-05-12T19:06:20.289Z,99496.14
2019-05-12T19:08:53.866Z,99504.66
2019-05-12T19:11:40.602Z,99510.73
2019-05-12T19:14:00.083Z,99513.89
2019-05-12T19:16:32.149Z,99513.16
2019-05-12T19:19:04.499Z,99520.02
2019-05-12T19:21:36.652Z,99525.23
2019-05-12T19:24:14.171Z,99533.19
2019-05-12T19:26:44.004Z,99531.18
2019-05-12T19:29:16.614Z,99534.82
2019-05-12T19:31:52.369Z,99537.52
2019-05-12T19:34:25.874Z,99545.84
2019-05-12T19:36:56.520Z,99549.31
2019-05-12T19:39:28.573Z,99556.51
2019-05-12T19:42:00.602Z,99556.91
2019-05-12T19:44:34.250Z,99555.53
2019-05-12T19:47:06.461Z,99565.03
2019-05-12T19:49:47.704Z,99565.93
2019-05-12T19:52:13.987Z,99566.32
2019-05-12T19:54:46.289Z,99568.63
2019-05-12T19:57:21.947Z,99564.02
2019-05-12T19:59:53.389Z,99566.86
2019-05-12T20:02:26.144Z,99566.97
2019-05-12T20:04:58.260Z,99568.92
2019-05-12T20:07:30.272Z,99570.84
2019-05-12T20:10:04.689Z,99568.03
2019-05-12T20:12:36.427Z,99579.29
2019-05-12T20:15:08.731Z,99578.03
2019-05-12T20:17:40.795Z,99583.00
2019-05-12T20:20:13.839Z,99578.38
2019-05-12T20:22:45.992Z,99585.45
2019-05-12T20:25:18.064Z,99582.63
2019-05-12T20:27:56.072Z,99584.92
2019-05-12T20:30:24.321Z,99592.72
2019-05-12T20:32:56.361Z,99592.72
2019-05-12T20:35:28.407Z,99591.94
2019-05-12T20:38:00.425Z,99592.48
2019-05-12T20:40:37.830Z,99590.41
2019-05-12T20:43:08.221Z,99592.83
2019-05-12T20:45:41.089Z,99592.83
2019-05-12T20:48:14.575Z,99589.28
2019-05-12T20:50:46.725Z,99599.77
2019-05-12T20:53:22.773Z,99598.48
2019-05-12T20:55:54.750Z,99601.42
2019-05-12T20:58:34.147Z,99610.09
2019-05-12T21:01:02.897Z,99610.09
2019-05-12T21:03:34.546Z,99611.75
2019-05-12T21:06:06.624Z,99610.62
2019-05-12T21:08:38.623Z,99606.63
2019-05-12T21:11:10.708Z,99609.70
2019-05-12T21:13:43.992Z,99601.49
2019-05-12T21:16:20.155Z,99602.77
2019-05-12T21:18:56.190Z,99602.52
2019-05-12T21:21:25.153Z,99601.75
2019-05-12T21:23:59.475Z,99592.77
2019-05-12T21:26:34.786Z,99603.25
2019-05-12T21:29:05.687Z,99607.86
2019-05-12T21:31:37.699Z,99602.98
2019-05-12T21:34:18.170Z,99606.21
2019-05-12T21:36:44.390Z,99603.55
2019-05-12T21:39:16.554Z,99612.47
2019-05-12T21:41:52.097Z,99612.39
2019-05-12T21:44:24.541Z,99608.80
2019-05-12T21:47:03.675Z,99617.48
2019-05-12T21:49:30.332Z,99617.08
2019-05-12T21:52:04.189Z,99617.22
2019-05-12T21:54:39.640Z,99620.77
2019-05-12T21:57:10.168Z,99619.45
2019-05-12T21:59:42.130Z,99620.34
2019-05-12T22:02:14.774Z,99622.48
2019-05-12T22:04:48.203Z,99623.50
2019-05-12T22:07:20.211Z,99626.52
2019-05-12T22:09:53.799Z,99630.05
2019-05-12T22:12:28.472Z,99628.30
2019-05-12T22:14:59.846Z,99626.61
2019-05-12T22:17:51.406Z,99633.14
2019-05-12T22:20:23.718Z,99634.00
2019-05-12T22:23:00.470Z,99628.35
2019-05-12T22:25:30.063Z,99631.64
2019-05-12T22:28:05.436Z,99631.02
2019-05-12T22:30:35.901Z,99636.13
2019-05-12T22:33:10.738Z,99640.69
2019-05-12T22:35:44.136Z,99640.42
2019-05-12T22:38:20.863Z,99646.30
2019-05-12T22:40:56.038Z,99654.91
2019-05-12T22:43:23.891Z,99654.02
2019-05-12T22:45:55.990Z,99659.02
2019-05-12T22:48:29.945Z,99652.80
2019-05-12T22:51:06.064Z,99650.91
2019-05-12T22:53:35.770Z,99652.45
2019-05-12T22:56:12.262Z,99658.41
2019-05-12T22:58:44.035Z,99655.34
2019-05-12T23:01:15.497Z,99653.73
2019-05-12T23:03:51.595Z,99657.28
2019-05-12T23:06:25.147Z,99658.56
2019-05-12T23:08:55.206Z,99666.98
2019-05-12T23:11:32.308Z,99666.09
2019-05-12T23:14:01.013Z,99670.66
2019-05-12T23:16:33.639Z,99671.59
2019-05-12T23:19:10.330Z,99672.83
2019-05-12T23:21:39.500Z,99674.84
2019-05-12T23:24:11.523Z,99677.16
2019-05-12T23:26:47.795Z,99678.44
2019-05-12T23:29:20.388Z,99679.67
2019-05-12T23:31:53.582Z,99669.95
2019-05-12T23:34:25.048Z,99672.73
2019-05-12T23:36:59.974Z,99669.17
2019-05-12T23:39:32.413Z,99665.53
2019-05-12T23:42:04.820Z,99670.12
2019-05-12T23:44:36.798Z,99670.08
2019-05-12T23:47:08.772Z,99667.63
2019-05-12T23:49:40.683Z,99666.97
2019-05-12T23:52:14.023Z,99667.59
2019-05-12T23:54:46.232Z,99662.76
2019-05-12T23:57:18.180Z,99661.98
2019-05-12T23:59:50.110Z,99664.65
